createdAt,value
2023-05-10T00:02:04.960Z,100502.14
2023-05-10T00:04:31.441Z,100501.09
2023-05-10T00:06:57.931Z,100497.78
2023-05-10T00:09:24.443Z,100501.83
2023-05-10T00:11:51.027Z,100498.14
2023-05-10T00:14:17.872Z,100498.34
2023-05-10T00:16:44.348Z,100496.92
2023-05-10T00:19:10.890Z,100494.83
2023-05-10T00:21:37.415Z,100493.61
2023-05-10T00:24:04.388Z,100491.52
2023-05-10T00:26:30.917Z,100492.04
2023-05-10T00:28:57.397Z,100488.38
2023-05-10T00:31:23.891Z,100489.08
2023-05-10T00:33:50.425Z,100485.59
2023-05-10T00:36:16.929Z,100487.88
2023-05-10T00:38:43.391Z,100486.30
2023-05-10T00:41:09.878Z,100489.82
2023-05-10T00:43:36.352Z,100486.67
2023-05-10T00:46:02.982Z,100485.98
2023-05-10T00:48:30.399Z,100489.64
2023-05-10T00:50:56.995Z,100486.15
2023-05-10T00:53:24.193Z,100485.10
2023-05-10T00:55:50.727Z,100483.17
2023-05-10T00:58:17.580Z,100477.57
2023-05-10T01:00:46.821Z,100482.30
2023-05-10T01:03:13.400Z,100481.61
2023-05-10T01:05:39.916Z,100480.73
2023-05-10T01:08:06.760Z,100481.08
2023-05-10T01:10:33.460Z,100482.13
2023-05-10T01:13:00.884Z,100476.17
2023-05-10T01:15:27.991Z,100476.87
2023-05-10T01:17:54.789Z,100475.29
2023-05-10T01:20:21.464Z,100477.56
2023-05-10T01:23:15.696Z,100476.69
2023-05-10T01:25:48.217Z,100474.77
2023-05-10T01:28:26.793Z,100468.27
2023-05-10T01:31:19.332Z,100466.70
2023-05-10T01:34:08.507Z,100467.58
2023-05-10T01:36:52.062Z,100463.36
2023-05-10T01:39:26.888Z,100462.50
2023-05-10T01:42:09.228Z,100467.05
2023-05-10T01:44:55.196Z,100462.14
2023-05-10T01:47:31.977Z,100464.76
2023-05-10T01:50:04.264Z,100463.71
2023-05-10T01:52:42.048Z,100462.30
2023-05-10T01:55:16.423Z,100462.65
2023-05-10T01:57:45.567Z,100458.95
2023-05-10T02:00:14.698Z,100454.58
2023-05-10T02:02:47.500Z,100454.92
2023-05-10T02:05:16.216Z,100454.39
2023-05-10T02:07:43.967Z,100453.15
2023-05-10T02:10:12.507Z,100450.69
2023-05-10T02:12:44.236Z,100450.50
2023-05-10T02:15:13.875Z,100446.11
2023-05-10T02:17:41.239Z,100444.52
2023-05-10T02:20:10.091Z,100442.40
2023-05-10T02:22:37.704Z,100437.84
2023-05-10T02:25:05.047Z,100438.88
2023-05-10T02:27:32.417Z,100439.06
2023-05-10T02:29:59.545Z,100438.36
2023-05-10T02:32:28.177Z,100439.74
2023-05-10T02:34:56.948Z,100438.87
2023-05-10T02:37:24.985Z,100442.04
2023-05-10T02:39:53.230Z,100443.10
2023-05-10T02:42:24.534Z,100443.80
2023-05-10T02:44:53.856Z,100443.10
2023-05-10T02:47:20.662Z,100446.27
2023-05-10T02:49:47.428Z,100440.47
2023-05-10T02:52:17.623Z,100443.11
2023-05-10T02:54:51.282Z,100442.59
2023-05-10T02:57:22.498Z,100442.79
2023-05-10T02:59:48.997Z,100444.54
2023-05-10T03:02:15.497Z,100445.42
2023-05-10T03:04:42.082Z,100444.21
2023-05-10T03:07:08.955Z,100446.33
2023-05-10T03:09:35.924Z,100445.11
2023-05-10T03:12:12.843Z,100448.44
2023-05-10T03:14:48.602Z,100447.92
2023-05-10T03:17:36.810Z,100443.89
2023-05-10T03:20:30.188Z,100445.65
2023-05-10T03:23:03.694Z,100438.48
2023-05-10T03:25:32.102Z,100438.29
2023-05-10T03:28:00.241Z,100440.23
2023-05-10T03:30:26.973Z,100439.88
2023-05-10T03:32:53.663Z,100441.80
2023-05-10T03:35:20.201Z,100441.81
2023-05-10T03:37:46.706Z,100440.92
2023-05-10T03:40:13.287Z,100441.11
2023-05-10T03:42:39.892Z,100440.94
2023-05-10T03:45:07.254Z,100438.13
2023-05-10T03:47:33.891Z,100439.00
2023-05-10T03:50:00.495Z,100442.16
2023-05-10T03:52:27.065Z,100439.69
2023-05-10T03:54:53.596Z,100440.56
2023-05-10T03:57:20.077Z,100439.33
2023-05-10T03:59:46.497Z,100445.46
2023-05-10T04:02:13.044Z,100441.61
2023-05-10T04:04:39.603Z,100442.29
2023-05-10T04:07:06.085Z,100442.83
2023-05-10T04:09:32.562Z,100440.19
2023-05-10T04:12:00.063Z,100441.57
2023-05-10T04:14:26.602Z,100440.35
2023-05-10T04:16:53.138Z,100438.95
2023-05-10T04:19:19.687Z,100439.64
2023-05-10T04:21:46.185Z,100440.69
2023-05-10T04:24:13.563Z,100436.84
2023-05-10T04:26:40.141Z,100437.88
2023-05-10T04:29:06.819Z,100435.09
2023-05-10T04:31:33.451Z,100435.63
2023-05-10T04:33:59.978Z,100439.48
2023-05-10T04:36:26.438Z,100437.21
2023-05-10T04:38:52.876Z,100443.88
2023-05-10T04:41:19.324Z,100443.69
2023-05-10T04:43:45.792Z,100445.09
2023-05-10T04:46:12.399Z,100442.29
2023-05-10T04:48:38.951Z,100446.69
2023-05-10T04:51:05.408Z,100441.95
2023-05-10T04:53:31.913Z,100441.06
2023-05-10T04:55:58.393Z,100446.48
2023-05-10T04:58:24.854Z,100441.21
2023-05-10T05:00:51.365Z,100443.32
2023-05-10T05:03:17.953Z,100443.66
2023-05-10T05:05:45.044Z,100445.05
2023-05-10T05:08:11.531Z,100451.89
2023-05-10T05:10:37.992Z,100452.04
2023-05-10T05:13:04.534Z,100451.33
2023-05-10T05:15:31.066Z,100453.58
2023-05-10T05:17:57.685Z,100454.77
2023-05-10T05:20:24.200Z,100456.70
2023-05-10T05:22:50.676Z,100459.31
2023-05-10T05:25:17.186Z,100458.95
2023-05-10T05:27:43.651Z,100459.29
2023-05-10T05:30:10.666Z,100459.09
2023-05-10T05:32:37.216Z,100457.86
2023-05-10T05:35:03.840Z,100461.55
2023-05-10T05:37:30.357Z,100462.95
2023-05-10T05:39:56.828Z,100462.91
2023-05-10T05:42:23.264Z,100466.02
2023-05-10T05:44:49.721Z,100469.66
2023-05-10T05:47:16.208Z,100473.32
2023-05-10T05:49:42.678Z,100473.98
2023-05-10T05:52:09.124Z,100473.45
2023-05-10T05:54:35.605Z,100475.73
2023-05-10T05:57:02.090Z,100475.70
2023-05-10T05:59:29.163Z,100477.78
2023-05-10T06:01:55.807Z,100476.89
2023-05-10T06:04:22.433Z,100480.90
2023-05-10T06:06:49.002Z,100481.70
2023-05-10T06:09:15.489Z,100479.89
2023-05-10T06:11:41.989Z,100482.83
2023-05-10T06:14:08.505Z,100486.67
2023-05-10T06:16:35.856Z,100486.84
2023-05-10T06:19:03.047Z,100484.05
2023-05-10T06:21:29.604Z,100483.34
2023-05-10T06:23:56.115Z,100485.41
2023-05-10T06:26:22.553Z,100486.75
2023-05-10T06:28:49.021Z,100485.98
2023-05-10T06:31:15.547Z,100488.91
2023-05-10T06:33:42.220Z,100491.98
2023-05-10T06:36:08.729Z,100494.84
2023-05-10T06:38:35.672Z,100490.70
2023-05-10T06:41:02.130Z,100491.56
2023-05-10T06:43:28.679Z,100491.42
2023-05-10T06:45:55.309Z,100489.39
2023-05-10T06:48:22.129Z,100489.86
2023-05-10T06:50:48.616Z,100489.94
2023-05-10T06:53:15.086Z,100486.64
2023-05-10T06:55:41.742Z,100482.48
2023-05-10T06:58:08.505Z,100478.86
2023-05-10T07:00:35.237Z,100478.08
2023-05-10T07:03:01.818Z,100478.29
2023-05-10T07:05:28.400Z,100477.21
2023-05-10T07:07:55.004Z,100479.77
2023-05-10T07:10:21.536Z,100481.68
2023-05-10T07:12:48.056Z,100480.46
2023-05-10T07:15:14.696Z,100480.27
2023-05-10T07:17:43.187Z,100477.71
2023-05-10T07:20:11.808Z,100479.19
2023-05-10T07:22:38.286Z,100475.61
2023-05-10T07:25:05.120Z,100473.59
2023-05-10T07:27:31.643Z,100468.98
2023-05-10T07:29:58.195Z,100466.17
2023-05-10T07:32:24.760Z,100462.73
2023-05-10T07:34:51.377Z,100458.58
2023-05-10T07:37:17.844Z,100455.78
2023-05-10T07:39:44.329Z,100457.54
2023-05-10T07:42:10.790Z,100456.02
2023-05-10T07:44:37.320Z,100455.15
2023-05-10T07:47:03.898Z,100457.23
2023-05-10T07:49:30.379Z,100453.61
2023-05-10T07:51:56.882Z,100456.45
2023-05-10T07:54:23.401Z,100458.88
2023-05-10T07:56:49.898Z,100460.15
2023-05-10T07:59:19.219Z,100463.48
2023-05-10T08:01:46.208Z,100464.11
2023-05-10T08:04:12.868Z,100465.27
2023-05-10T08:06:40.918Z,100463.66
2023-05-10T08:09:07.449Z,100462.84
2023-05-10T08:11:35.178Z,100463.54
2023-05-10T08:14:02.185Z,100460.33
2023-05-10T08:16:28.846Z,100462.60
2023-05-10T08:18:55.420Z,100467.05
2023-05-10T08:21:21.910Z,100466.81
2023-05-10T08:23:48.373Z,100463.70
2023-05-10T08:26:14.884Z,100460.25
2023-05-10T08:28:41.705Z,100464.16
2023-05-10T08:31:08.202Z,100466.55
2023-05-10T08:33:34.677Z,100461.26
2023-05-10T08:36:01.211Z,100459.42
2023-05-10T08:38:27.698Z,100461.31
2023-05-10T08:40:56.139Z,100462.65
2023-05-10T08:43:25.683Z,100460.63
2023-05-10T08:45:54.456Z,100465.02
2023-05-10T08:48:24.772Z,100458.51
2023-05-10T08:50:54.105Z,100456.45
2023-05-10T08:53:21.979Z,100450.77
2023-05-10T08:55:48.666Z,100454.73
2023-05-10T08:58:15.417Z,100454.98
2023-05-10T09:00:42.106Z,100449.11
2023-05-10T09:03:08.645Z,100445.00
2023-05-10T09:05:37.247Z,100441.96
2023-05-10T09:08:03.887Z,100447.92
2023-05-10T09:10:31.956Z,100447.61
2023-05-10T09:12:59.635Z,100449.12
2023-05-10T09:15:26.719Z,100446.52
2023-05-10T09:17:53.805Z,100445.81
2023-05-10T09:20:20.501Z,100442.60
2023-05-10T09:22:47.002Z,100442.70
2023-05-10T09:25:15.335Z,100442.11
2023-05-10T09:27:45.799Z,100441.35
2023-05-10T09:30:17.205Z,100433.54
2023-05-10T09:32:44.957Z,100433.34
2023-05-10T09:35:19.882Z,100436.88
2023-05-10T09:37:48.530Z,100434.65
2023-05-10T09:40:17.129Z,100431.87
2023-05-10T09:42:51.766Z,100430.56
2023-05-10T09:45:18.614Z,100432.65
2023-05-10T09:47:46.500Z,100432.31
2023-05-10T09:50:13.173Z,100427.08
2023-05-10T09:52:58.131Z,100425.80
2023-05-10T09:55:42.276Z,100426.34
2023-05-10T09:58:08.937Z,100425.88
2023-05-10T10:00:40.037Z,100426.54
2023-05-10T10:03:07.500Z,100420.02
2023-05-10T10:05:35.711Z,100424.61
2023-05-10T10:08:04.901Z,100416.54
2023-05-10T10:10:33.377Z,100414.94
2023-05-10T10:13:00.342Z,100407.62
2023-05-10T10:15:27.135Z,100408.86
2023-05-10T10:17:55.074Z,100406.22
2023-05-10T10:20:23.656Z,100402.06
2023-05-10T10:22:50.534Z,100399.58
2023-05-10T10:25:19.005Z,100401.02
2023-05-10T10:28:22.326Z,100397.02
2023-05-10T10:30:52.179Z,100396.83
2023-05-10T10:33:50.748Z,100390.23
2023-05-10T10:36:17.390Z,100389.52
2023-05-10T10:38:47.095Z,100395.48
2023-05-10T10:41:32.496Z,100388.85
2023-05-10T10:44:25.002Z,100381.76
2023-05-10T10:47:03.965Z,100374.46
2023-05-10T10:49:38.745Z,100371.05
2023-05-10T10:52:28.014Z,100368.24
2023-05-10T10:54:58.958Z,100364.58
2023-05-10T10:57:25.957Z,100369.47
2023-05-10T10:59:52.489Z,100361.45
2023-05-10T11:02:44.214Z,100358.03
2023-05-10T11:05:29.636Z,100353.73
2023-05-10T11:07:58.395Z,100344.27
2023-05-10T11:10:26.412Z,100344.52
2023-05-10T11:13:08.261Z,100337.45
2023-05-10T11:15:39.896Z,100339.79
2023-05-10T11:18:21.562Z,100339.55
2023-05-10T11:21:06.080Z,100345.64
2023-05-10T11:23:44.822Z,100349.02
2023-05-10T11:26:12.496Z,100342.73
2023-05-10T11:28:49.865Z,100334.88
2023-05-10T11:31:20.960Z,100338.69
2023-05-10T11:33:52.689Z,100337.42
2023-05-10T11:36:24.481Z,100336.05
2023-05-10T11:38:50.968Z,100337.30
2023-05-10T11:41:19.683Z,100334.27
2023-05-10T11:43:52.082Z,100332.47
2023-05-10T11:46:20.932Z,100329.39
2023-05-10T11:48:50.977Z,100328.71
2023-05-10T11:51:21.699Z,100330.74
2023-05-10T11:53:48.584Z,100334.36
2023-05-10T11:56:15.044Z,100336.23
2023-05-10T11:58:41.937Z,100330.39
2023-05-10T12:01:09.946Z,100330.94
2023-05-10T12:03:37.121Z,100332.83
2023-05-10T12:06:04.386Z,100339.30
2023-05-10T12:08:31.470Z,100339.98
2023-05-10T12:11:10.696Z,100334.05
2023-05-10T12:13:45.394Z,100329.76
2023-05-10T12:16:19.832Z,100331.13
2023-05-10T12:18:49.782Z,100331.91
2023-05-10T12:21:16.718Z,100326.84
2023-05-10T12:23:43.514Z,100326.39
2023-05-10T12:26:11.244Z,100328.86
2023-05-10T12:28:38.798Z,100324.76
2023-05-10T12:31:07.209Z,100329.27
2023-05-10T12:33:44.489Z,100330.58
2023-05-10T12:36:13.005Z,100323.16
2023-05-10T12:38:41.648Z,100320.02
2023-05-10T12:41:10.409Z,100317.23
2023-05-10T12:43:37.526Z,100314.37
2023-05-10T12:46:11.201Z,100305.99
2023-05-10T12:48:39.863Z,100306.79
2023-05-10T12:51:07.067Z,100303.48
2023-05-10T12:53:33.635Z,100298.77
2023-05-10T12:56:00.166Z,100292.11
2023-05-10T12:58:35.722Z,100296.49
2023-05-10T13:01:03.569Z,100295.27
2023-05-10T13:03:30.111Z,100290.90
2023-05-10T13:05:56.578Z,100288.70
2023-05-10T13:08:23.142Z,100285.92
2023-05-10T13:10:49.841Z,100284.50
2023-05-10T13:13:16.606Z,100275.89
2023-05-10T13:15:43.149Z,100274.47
2023-05-10T13:18:09.670Z,100271.48
2023-05-10T13:20:36.240Z,100268.88
2023-05-10T13:23:02.702Z,100264.23
2023-05-10T13:25:29.168Z,100259.60
2023-05-10T13:27:56.790Z,100255.67
2023-05-10T13:30:26.715Z,100248.84
2023-05-10T13:32:53.320Z,100243.73
2023-05-10T13:35:19.831Z,100243.68
2023-05-10T13:37:46.459Z,100241.88
2023-05-10T13:40:12.973Z,100242.67
2023-05-10T13:42:39.477Z,100234.42
2023-05-10T13:45:06.607Z,100228.08
2023-05-10T13:47:33.120Z,100224.64
2023-05-10T13:49:59.684Z,100232.32
2023-05-10T13:52:27.226Z,100230.27
2023-05-10T13:54:53.781Z,100226.41
2023-05-10T13:57:20.250Z,100228.84
2023-05-10T13:59:46.826Z,100226.55
2023-05-10T14:02:13.666Z,100227.30
2023-05-10T14:04:40.251Z,100218.86
2023-05-10T14:07:06.970Z,100218.98
2023-05-10T14:09:33.499Z,100219.21
2023-05-10T14:11:59.987Z,100216.61
2023-05-10T14:14:26.498Z,100213.33
2023-05-10T14:16:53.050Z,100211.48
2023-05-10T14:19:19.533Z,100211.34
2023-05-10T14:21:46.085Z,100211.33
2023-05-10T14:24:12.679Z,100209.92
2023-05-10T14:26:39.250Z,100200.02
2023-05-10T14:29:05.870Z,100198.05
2023-05-10T14:31:32.715Z,100195.25
2023-05-10T14:33:59.254Z,100201.05
2023-05-10T14:36:25.888Z,100199.69
2023-05-10T14:38:52.426Z,100197.61
2023-05-10T14:41:18.924Z,100199.00
2023-05-10T14:43:45.443Z,100204.38
2023-05-10T14:46:12.027Z,100204.15
2023-05-10T14:48:38.592Z,100208.75
2023-05-10T14:51:05.075Z,100208.42
2023-05-10T14:53:31.566Z,100207.93
2023-05-10T14:55:58.065Z,100212.80
2023-05-10T14:58:24.693Z,100213.67
2023-05-10T15:00:51.196Z,100208.16
2023-05-10T15:03:18.364Z,100204.17
2023-05-10T15:05:45.376Z,100204.73
2023-05-10T15:08:11.881Z,100203.73
2023-05-10T15:10:38.371Z,100205.66
2023-05-10T15:13:05.395Z,100201.60
2023-05-10T15:15:32.126Z,100198.36
2023-05-10T15:17:58.724Z,100198.92
2023-05-10T15:20:25.223Z,100205.98
2023-05-10T15:22:51.677Z,100208.14
2023-05-10T15:25:18.450Z,100205.70
2023-05-10T15:27:45.145Z,100211.81
2023-05-10T15:30:12.232Z,100209.54
2023-05-10T15:32:38.777Z,100207.80
2023-05-10T15:35:05.796Z,100208.77
2023-05-10T15:37:32.278Z,100203.20
2023-05-10T15:39:58.697Z,100201.61
2023-05-10T15:42:25.146Z,100206.11
2023-05-10T15:44:51.599Z,100206.47
2023-05-10T15:47:18.115Z,100202.87
2023-05-10T15:49:44.598Z,100200.26
2023-05-10T15:52:11.068Z,100196.90
2023-05-10T15:54:37.616Z,100196.92
2023-05-10T15:57:04.149Z,100196.72
2023-05-10T15:59:30.604Z,100194.23
2023-05-10T16:01:57.437Z,100194.14
2023-05-10T16:04:24.009Z,100193.35
2023-05-10T16:06:50.577Z,100191.98
2023-05-10T16:09:17.064Z,100191.41
2023-05-10T16:11:43.880Z,100192.98
2023-05-10T16:14:10.411Z,100195.09
2023-05-10T16:16:37.055Z,100199.17
2023-05-10T16:19:03.714Z,100195.86
2023-05-10T16:21:31.224Z,100198.43
2023-05-10T16:23:58.494Z,100198.30
2023-05-10T16:26:25.043Z,100197.86
2023-05-10T16:28:51.620Z,100197.05
2023-05-10T16:31:18.231Z,100195.30
2023-05-10T16:33:44.750Z,100194.23
2023-05-10T16:36:11.287Z,100197.77
2023-05-10T16:38:37.801Z,100201.96
2023-05-10T16:41:04.716Z,100204.06
2023-05-10T16:43:32.789Z,100210.00
2023-05-10T16:45:59.333Z,100209.73
2023-05-10T16:48:25.845Z,100213.98
2023-05-10T16:50:52.352Z,100206.52
2023-05-10T16:53:18.842Z,100211.23
2023-05-10T16:55:45.270Z,100209.89
2023-05-10T16:58:11.760Z,100211.69
2023-05-10T17:00:38.246Z,100217.25
2023-05-10T17:03:04.819Z,100215.15
2023-05-10T17:05:31.313Z,100218.20
2023-05-10T17:07:58.129Z,100221.96
2023-05-10T17:10:24.627Z,100222.17
2023-05-10T17:12:51.089Z,100223.29
2023-05-10T17:15:18.042Z,100225.43
2023-05-10T17:17:44.769Z,100225.67
2023-05-10T17:20:11.534Z,100228.48
2023-05-10T17:22:38.028Z,100233.75
2023-05-10T17:25:05.003Z,100230.91
2023-05-10T17:27:31.511Z,100230.35
2023-05-10T17:29:58.253Z,100233.01
2023-05-10T17:32:25.385Z,100235.85
2023-05-10T17:34:51.885Z,100234.59
2023-05-10T17:37:18.431Z,100234.76
2023-05-10T17:39:44.971Z,100233.91
2023-05-10T17:42:11.432Z,100237.82
2023-05-10T17:44:37.882Z,100242.23
2023-05-10T17:47:04.339Z,100243.08
2023-05-10T17:49:30.812Z,100243.20
2023-05-10T17:51:57.347Z,100243.17
2023-05-10T17:54:23.823Z,100243.48
2023-05-10T17:56:51.585Z,100246.83
2023-05-10T17:59:18.095Z,100249.33
2023-05-10T18:01:44.674Z,100249.13
2023-05-10T18:04:11.332Z,100258.17
2023-05-10T18:06:38.263Z,100258.35
2023-05-10T18:09:05.282Z,100258.89
2023-05-10T18:11:31.773Z,100262.02
2023-05-10T18:13:58.252Z,100263.06
2023-05-10T18:16:24.748Z,100265.31
2023-05-10T18:18:51.338Z,100269.52
2023-05-10T18:21:17.932Z,100271.60
2023-05-10T18:23:44.796Z,100271.60
2023-05-10T18:26:11.527Z,100275.98
2023-05-10T18:28:38.033Z,100278.64
2023-05-10T18:31:04.563Z,100282.48
2023-05-10T18:33:31.079Z,100280.33
2023-05-10T18:35:57.601Z,100279.05
2023-05-10T18:38:24.140Z,100282.69
2023-05-10T18:40:50.633Z,100285.30
2023-05-10T18:43:17.068Z,100285.95
2023-05-10T18:45:43.539Z,100285.70
2023-05-10T18:48:09.983Z,100290.55
2023-05-10T18:50:36.529Z,100289.23
2023-05-10T18:53:03.342Z,100289.34
2023-05-10T18:55:29.883Z,100292.61
2023-05-10T18:57:56.411Z,100295.05
2023-05-10T19:00:22.999Z,100300.63
2023-05-10T19:02:49.502Z,100299.65
2023-05-10T19:05:16.452Z,100298.16
2023-05-10T19:07:43.207Z,100301.44
2023-05-10T19:10:12.686Z,100301.69
2023-05-10T19:12:39.706Z,100303.14
2023-05-10T19:15:06.967Z,100308.48
2023-05-10T19:17:35.841Z,100308.86
2023-05-10T19:20:03.810Z,100305.02
2023-05-10T19:25:00.197Z,100305.92
2023-05-10T19:27:28.974Z,100306.45
2023-05-10T19:29:56.683Z,100308.40
2023-05-10T19:32:24.771Z,100304.90
2023-05-10T19:34:52.660Z,100310.72
2023-05-10T19:37:19.221Z,100309.48
2023-05-10T19:39:45.777Z,100312.31
2023-05-10T19:42:12.405Z,100310.77
2023-05-10T19:44:38.945Z,100308.84
2023-05-10T19:47:05.623Z,100308.53
2023-05-10T19:49:32.231Z,100305.05
2023-05-10T19:51:58.710Z,100308.09
2023-05-10T19:54:25.266Z,100310.23
2023-05-10T19:56:51.776Z,100305.50
2023-05-10T19:59:18.208Z,100305.88
2023-05-10T20:01:46.365Z,100310.63
2023-05-10T20:04:13.002Z,100308.00
2023-05-10T20:06:39.632Z,100304.67
2023-05-10T20:09:06.189Z,100305.20
2023-05-10T20:11:32.648Z,100305.02
2023-05-10T20:13:59.131Z,100304.84
2023-05-10T20:16:26.914Z,100305.55
2023-05-10T20:18:54.406Z,100308.91
2023-05-10T20:21:21.109Z,100307.88
2023-05-10T20:23:47.725Z,100309.28
2023-05-10T20:26:14.230Z,100310.02
2023-05-10T20:28:40.717Z,100312.52
2023-05-10T20:31:07.250Z,100307.95
2023-05-10T20:33:33.745Z,100310.27
2023-05-10T20:36:00.701Z,100312.95
2023-05-10T20:38:27.234Z,100308.73
2023-05-10T20:40:53.764Z,100313.70
2023-05-10T20:43:20.251Z,100313.91
2023-05-10T20:45:47.296Z,100315.00
2023-05-10T20:48:13.813Z,100309.56
2023-05-10T20:50:40.260Z,100311.87
2023-05-10T20:53:06.760Z,100307.81
2023-05-10T20:55:33.257Z,100305.55
2023-05-10T20:58:00.253Z,100306.09
2023-05-10T21:00:27.761Z,100304.71
2023-05-10T21:02:54.282Z,100309.31
2023-05-10T21:05:20.939Z,100307.23
2023-05-10T21:07:47.428Z,100305.67
2023-05-10T21:10:13.869Z,100301.64
2023-05-10T21:12:40.599Z,100300.79
2023-05-10T21:15:07.954Z,100302.90
2023-05-10T21:17:34.423Z,100302.92
2023-05-10T21:20:00.942Z,100301.67
2023-05-10T21:22:27.491Z,100305.05
2023-05-10T21:24:54.096Z,100304.02
2023-05-10T21:27:20.713Z,100302.98
2023-05-10T21:29:47.447Z,100308.11
2023-05-10T21:32:13.960Z,100305.66
2023-05-10T21:34:40.463Z,100302.86
2023-05-10T21:37:06.964Z,100304.30
2023-05-10T21:39:33.545Z,100305.73
2023-05-10T21:41:59.975Z,100306.47
2023-05-10T21:44:26.465Z,100308.98
2023-05-10T21:46:52.922Z,100305.81
2023-05-10T21:49:19.419Z,100307.10
2023-05-10T21:51:45.900Z,100304.30
2023-05-10T21:54:12.380Z,100306.63
2023-05-10T21:56:38.929Z,100307.38
2023-05-10T21:59:05.903Z,100304.41
2023-05-10T22:01:32.462Z,100305.32
2023-05-10T22:03:58.973Z,100312.23
2023-05-10T22:06:25.437Z,100312.84
2023-05-10T22:08:52.032Z,100313.10
2023-05-10T22:11:18.548Z,100314.93
2023-05-10T22:13:45.053Z,100315.36
2023-05-10T22:16:11.521Z,100315.23
2023-05-10T22:18:38.206Z,100323.94
2023-05-10T22:21:04.884Z,100326.63
2023-05-10T22:23:31.370Z,100326.86
2023-05-10T22:26:04.523Z,100327.11
2023-05-10T22:28:31.146Z,100324.36
2023-05-10T22:30:57.670Z,100321.60
2023-05-10T22:33:24.220Z,100320.78
2023-05-10T22:35:50.768Z,100320.13
2023-05-10T22:38:17.293Z,100320.73
2023-05-10T22:40:43.875Z,100323.63
2023-05-10T22:43:10.411Z,100328.99
2023-05-10T22:45:36.889Z,100327.84
2023-05-10T22:48:04.589Z,100326.69
2023-05-10T22:50:31.450Z,100330.65
2023-05-10T22:52:57.948Z,100327.71
2023-05-10T22:55:24.496Z,100333.41
2023-05-10T22:57:52.043Z,100333.66
2023-05-10T23:00:19.018Z,100336.88
2023-05-10T23:02:45.955Z,100336.41
2023-05-10T23:05:12.597Z,100336.14
2023-05-10T23:07:39.123Z,100336.33
2023-05-10T23:10:06.149Z,100333.91
2023-05-10T23:12:32.670Z,100339.20
2023-05-10T23:14:59.237Z,100335.03
2023-05-10T23:17:25.724Z,100333.13
2023-05-10T23:19:52.390Z,100340.70
2023-05-10T23:22:18.887Z,100337.21
2023-05-10T23:24:45.360Z,100334.92
2023-05-10T23:27:11.861Z,100334.77
2023-05-10T23:29:38.314Z,100338.11
2023-05-10T23:32:05.123Z,100336.20
2023-05-10T23:34:31.681Z,100337.42
2023-05-10T23:36:58.135Z,100336.91
2023-05-10T23:39:24.573Z,100336.55
2023-05-10T23:41:51.100Z,100339.02
2023-05-10T23:44:17.611Z,100338.67
2023-05-10T23:46:44.095Z,100341.83
2023-05-10T23:49:10.559Z,100344.11
2023-05-10T23:51:36.997Z,100343.23
2023-05-10T23:54:03.500Z,100343.08
2023-05-10T23:56:29.958Z,100349.56
2023-05-10T23:58:56.408Z,100344.83
